Time;durP1;ratioP1;P1;durP2;ratioP2;P2;SDS_P1;SDS_P2;PMS_P1;PMS_P2;Temp;Humidity;BMP_temperature;BMP_pressure;BME280_temperature;BME280_humidity;BME280_pressure;Samples;Min_cycle;Max_cycle;Signal;HPM_P1;HPM_P2
2022/06/04 00:01:43;;;;;;;2.37;1.77;;;;;;;17.65;69.97;101297.97;5052967;28;20454;-64
2022/06/04 00:04:12;;;;;;;1.67;1.43;;;;;;;17.64;69.49;101296.34;5078060;22;20492;-71
2022/06/04 00:06:39;;;;;;;2.80;2.20;;;;;;;17.66;69.46;101290.53;5052864;28;20489;-71
2022/06/04 00:09:06;;;;;;;2.53;1.73;;;;;;;17.69;69.40;101295.38;5053223;28;20542;-72
2022/06/04 00:17:02;;;;;;;2.83;1.70;;;;;;;17.68;70.25;101282.81;5053019;28;20402;-72
2022/06/04 00:19:29;;;;;;;2.10;1.60;;;;;;;17.71;69.79;101284.88;5052795;28;21014;-72
2022/06/04 00:21:56;;;;;;;4.13;2.07;;;;;;;17.72;70.50;101277.47;5053105;28;20489;-72
2022/06/04 00:24:23;;;;;;;2.03;1.13;;;;;;;17.75;70.58;101279.56;5052956;28;20552;-72
2022/06/04 00:26:50;;;;;;;4.20;1.17;;;;;;;17.72;70.44;101272.78;5052674;28;21034;-72
2022/06/04 00:29:17;;;;;;;2.53;1.73;;;;;;;17.72;70.68;101274.72;5052962;28;20448;-72
2022/06/04 00:31:45;;;;;;;2.80;2.10;;;;;;;17.75;70.37;101266.69;5053019;28;20448;-72
2022/06/04 00:34:12;;;;;;;1.33;1.20;;;;;;;17.72;69.77;101264.56;5052601;28;20508;-72
2022/06/04 00:36:38;;;;;;;2.80;1.57;;;;;;;17.74;69.97;101264.25;5052650;28;20529;-72
2022/06/04 00:39:05;;;;;;;1.73;1.43;;;;;;;17.69;70.44;101265.22;5052622;28;20482;-72
2022/06/04 00:41:39;;;;;;;3.00;2.17;;;;;;;17.71;70.39;101271.19;5052848;28;20474;-71
2022/06/04 00:44:56;;;;;;;2.80;1.73;;;;;;;17.65;70.57;101269.75;5052848;28;20490;-72
2022/06/04 00:47:27;;;;;;;2.20;1.67;;;;;;;17.60;70.33;101261.72;5051118;28;20496;-71
2022/06/04 00:49:55;;;;;;;2.60;1.87;;;;;;;17.61;70.33;101257.84;5052910;28;20511;-71
2022/06/04 00:52:22;;;;;;;3.30;1.60;;;;;;;17.64;70.80;101262.69;5052739;28;20445;-71
2022/06/04 00:54:53;;;;;;;2.90;1.87;;;;;;;17.64;71.36;101259.94;5052681;28;20481;-71
2022/06/04 00:57:46;;;;;;;3.27;1.73;;;;;;;17.56;70.87;101266.28;5052444;28;20947;-71
2022/06/04 01:00:18;;;;;;;2.50;1.70;;;;;;;17.52;70.68;101271.59;5052849;28;20537;-71
2022/06/04 01:03:11;;;;;;;5.63;1.30;;;;;;;17.57;71.21;101267.88;5052531;28;20469;-70
2022/06/04 01:05:52;;;;;;;3.03;2.07;;;;;;;17.63;71.33;101258.34;5052936;28;20518;-71
2022/06/04 01:08:45;;;;;;;2.13;1.70;;;;;;;17.63;71.20;101266.56;5056511;28;20561;-71
2022/06/04 01:11:20;;;;;;;2.03;1.50;;;;;;;17.63;71.79;101277.53;5056169;28;20466;-71
2022/06/04 01:14:07;;;;;;;2.00;1.63;;;;;;;17.61;71.12;101277.03;5056060;28;20485;-72
2022/06/04 01:16:40;;;;;;;2.23;1.50;;;;;;;17.65;70.89;101280.72;5056274;28;20513;-72
2022/06/04 01:19:45;;;;;;;1.80;1.53;;;;;;;17.59;70.63;101276.56;5056060;28;20418;-71
2022/06/04 01:22:30;;;;;;;2.57;1.67;;;;;;;17.61;70.65;101275.09;5056197;28;20426;-71
2022/06/04 01:25:21;;;;;;;3.13;1.30;;;;;;;17.59;70.67;101271.09;5056317;28;20476;-73
2022/06/04 01:27:53;;;;;;;1.73;1.47;;;;;;;17.46;70.55;101258.44;5056084;28;20466;-73
2022/06/04 01:30:24;;;;;;;2.60;1.57;;;;;;;17.51;71.49;101267.25;5056114;28;20429;-71
2022/06/04 01:32:55;;;;;;;2.00;1.50;;;;;;;17.54;71.82;101272.09;5056019;28;20466;-72
2022/06/04 01:35:26;;;;;;;3.03;1.83;;;;;;;17.53;71.33;101267.75;5056088;28;20459;-72
2022/06/04 01:37:58;;;;;;;2.23;1.50;;;;;;;17.56;71.42;101277.22;5055992;28;20785;-73
2022/06/04 01:43:19;;;;;;;1.40;1.30;;;;;;;17.46;70.57;101267.47;5055651;28;20827;-73
2022/06/04 01:45:47;;;;;;;3.23;1.77;;;;;;;17.46;71.21;101261.97;5055792;28;20439;-72
2022/06/04 01:48:17;;;;;;;1.93;1.40;;;;;;;17.48;70.97;101253.41;5055374;28;20482;-73
2022/06/04 01:50:48;;;;;;;2.23;1.60;;;;;;;17.49;71.71;101258.59;5055756;28;20442;-72
2022/06/04 01:53:17;;;;;;;1.87;1.50;;;;;;;17.51;71.55;101258.25;5055650;28;20465;-73
2022/06/04 01:55:49;;;;;;;5.23;1.60;;;;;;;17.48;70.95;101261.63;5055349;28;20958;-73
2022/06/04 01:58:22;;;;;;;2.50;1.70;;;;;;;17.45;71.25;101256.84;5055637;28;20499;-72
2022/06/04 02:00:54;;;;;;;3.53;1.77;;;;;;;17.44;71.47;101258.75;5055518;28;20497;-72
2022/06/04 02:03:29;;;;;;;3.40;2.03;;;;;;;17.33;70.97;101260.28;5055209;28;20474;-72
2022/06/04 02:06:00;;;;;;;1.90;1.40;;;;;;;17.30;70.81;101256.25;5055466;28;20488;-72
2022/06/04 02:08:31;;;;;;;2.60;1.60;;;;;;;17.33;70.88;101252.06;5055294;28;20522;-72
2022/06/04 02:11:02;;;;;;;4.27;1.77;;;;;;;17.31;71.37;101257.06;5055020;28;20513;-74
2022/06/04 02:13:30;;;;;;;2.03;1.47;;;;;;;17.32;70.89;101254.00;5054865;28;21066;-74
2022/06/04 02:16:03;;;;;;;2.20;1.60;;;;;;;17.29;70.66;101265.59;5054930;28;20970;-74
2022/06/04 02:18:30;;;;;;;3.23;1.67;;;;;;;17.27;70.95;101256.94;5054474;28;20423;-74
2022/06/04 02:20:56;;;;;;;8.40;2.00;;;;;;;17.28;70.08;101261.28;5055294;28;20533;-74
2022/06/04 02:23:24;;;;;;;1.77;1.13;;;;;;;17.26;69.23;101263.53;5054987;28;20458;-73
2022/06/04 02:25:52;;;;;;;2.77;1.53;;;;;;;17.19;69.51;101260.50;5054796;28;20488;-74
2022/06/04 02:28:20;;;;;;;1.60;1.27;;;;;;;17.16;69.19;101258.41;5054922;28;20517;-74
2022/06/04 02:31:06;;;;;;;3.00;1.70;;;;;;;17.13;70.00;101253.59;5054968;28;20473;-74
2022/06/04 02:33:42;;;;;;;5.63;2.33;;;;;;;17.06;69.92;101265.06;5054879;28;20473;-74
2022/06/04 02:36:15;;;;;;;2.37;1.43;;;;;;;17.10;69.88;101265.22;5054571;28;20513;-74
2022/06/04 02:38:50;;;;;;;4.30;1.57;;;;;;;17.03;69.24;101259.44;5054502;28;20793;-72
2022/06/04 02:41:21;;;;;;;2.70;2.20;;;;;;;16.97;70.29;101264.28;5054506;28;20524;-72
2022/06/04 02:43:52;;;;;;;1.63;1.27;;;;;;;17.03;69.66;101262.19;5054349;28;21010;-72
2022/06/04 02:46:27;;;;;;;2.07;1.57;;;;;;;17.05;68.43;101257.19;5054379;28;20434;-72
2022/06/04 02:49:02;;;;;;;1.80;1.40;;;;;;;17.03;69.45;101257.50;5054586;28;20474;-72
2022/06/04 02:51:34;;;;;;;5.27;1.67;;;;;;;17.01;68.90;101265.25;5054589;28;20520;-72
2022/06/04 02:54:04;;;;;;;2.10;1.50;;;;;;;16.94;68.73;101262.22;5054150;28;20468;-72
2022/06/04 02:56:33;;;;;;;2.33;1.60;;;;;;;16.97;68.63;101258.03;5054478;28;20442;-72
2022/06/04 02:59:04;;;;;;;3.30;1.90;;;;;;;16.95;69.56;101271.22;5054459;28;20537;-73
2022/06/04 03:01:36;;;;;;;3.67;1.40;;;;;;;16.95;69.36;101257.53;5053983;28;20918;-72
2022/06/04 03:04:04;;;;;;;3.60;1.50;;;;;;;16.90;68.41;101270.25;5053931;28;20564;-72
2022/06/04 03:06:32;;;;;;;2.10;1.50;;;;;;;16.90;69.03;101286.69;5054289;28;20477;-73
2022/06/04 03:09:00;;;;;;;3.83;1.60;;;;;;;16.85;68.82;101280.59;5053793;28;20481;-72
2022/06/04 03:11:26;;;;;;;1.80;1.27;;;;;;;16.80;67.15;101283.50;5054135;28;20529;-72
2022/06/04 03:13:53;;;;;;;3.67;1.70;;;;;;;16.65;67.01;101276.59;5053763;28;20466;-72
2022/06/04 03:16:20;;;;;;;2.50;1.43;;;;;;;16.68;67.52;101278.66;5054024;28;20438;-73
2022/06/04 03:18:48;;;;;;;2.03;1.60;;;;;;;16.67;68.85;101268.84;5054009;28;20442;-72
2022/06/04 03:21:15;;;;;;;2.87;1.60;;;;;;;16.69;68.81;101277.56;5053987;28;20438;-72
2022/06/04 03:23:42;;;;;;;3.17;1.80;;;;;;;16.74;69.64;101277.41;5053871;28;20490;-72
2022/06/04 03:26:08;;;;;;;2.00;1.67;;;;;;;16.73;69.40;101274.97;5053931;28;20444;-74
2022/06/04 03:28:35;;;;;;;3.10;1.80;;;;;;;16.61;68.21;101279.16;5053019;28;20536;-74
2022/06/04 03:31:02;;;;;;;2.70;1.53;;;;;;;16.59;68.57;101291.56;5054070;28;20508;-72
2022/06/04 03:33:28;;;;;;;2.60;1.60;;;;;;;16.58;69.04;101279.00;5053701;28;20492;-72
2022/06/04 03:35:56;;;;;;;1.67;1.43;;;;;;;16.61;69.03;101286.56;5053741;28;20527;-72
2022/06/04 03:38:23;;;;;;;1.70;1.23;;;;;;;16.62;70.08;101294.44;5053337;28;20959;-73
2022/06/04 03:40:50;;;;;;;5.50;2.20;;;;;;;16.64;69.65;101299.59;5053642;28;20533;-73
2022/06/04 03:43:16;;;;;;;3.07;1.50;;;;;;;16.67;69.40;101303.63;5053586;28;20552;-73
2022/06/04 03:45:43;;;;;;;2.50;1.30;;;;;;;16.73;69.34;101294.94;5053856;28;20470;-73
2022/06/04 03:48:09;;;;;;;1.93;1.33;;;;;;;16.77;69.46;101301.38;5053455;28;20488;-71
2022/06/04 03:50:36;;;;;;;1.27;1.17;;;;;;;16.71;68.44;101294.44;5053573;28;20452;-72
2022/06/04 03:53:04;;;;;;;2.43;1.87;;;;;;;16.73;68.60;101310.53;5053368;28;20469;-72
2022/06/04 03:55:31;;;;;;;1.90;1.43;;;;;;;16.69;68.59;101310.38;5053075;28;20451;-72
2022/06/04 03:57:57;;;;;;;6.73;1.47;;;;;;;16.75;68.35;101317.31;5053397;28;20434;-72
2022/06/04 04:00:27;;;;;;;2.37;1.73;;;;;;;16.72;67.92;101308.91;5053310;28;20488;-72
2022/06/04 04:02:57;;;;;;;13.10;1.93;;;;;;;16.77;67.92;101309.56;5053017;28;20474;-72
2022/06/04 04:05:26;;;;;;;2.23;1.33;;;;;;;16.75;67.03;101303.63;5053282;28;20518;-72
2022/06/04 04:07:54;;;;;;;3.80;1.80;;;;;;;16.79;67.02;101304.59;5053198;28;20531;-72
2022/06/04 04:10:22;;;;;;;4.40;1.63;;;;;;;16.78;67.25;101294.78;5052847;28;20951;-72
2022/06/04 04:12:49;;;;;;;2.67;1.43;;;;;;;16.75;66.60;101303.63;5053139;28;20474;-72
2022/06/04 04:15:16;;;;;;;2.70;1.63;;;;;;;16.71;66.92;101310.84;5053141;28;20524;-72
2022/06/04 04:17:43;;;;;;;1.63;1.30;;;;;;;16.80;66.85;101305.41;5052878;28;20465;-72
2022/06/04 04:20:15;;;;;;;1.47;1.33;;;;;;;16.80;66.08;101302.66;5053098;28;20446;-71
2022/06/04 04:22:42;;;;;;;1.53;1.17;;;;;;;16.83;65.95;101300.06;5053042;28;20462;-72
2022/06/04 04:25:11;;;;;;;3.20;1.53;;;;;;;16.87;66.36;101301.03;5052746;28;20491;-72
2022/06/04 04:27:39;;;;;;;2.70;1.60;;;;;;;16.85;66.44;101303.28;5052655;28;20438;-72
2022/06/04 04:30:08;;;;;;;2.63;1.30;;;;;;;16.87;66.68;101306.50;5052714;28;21027;-71
2022/06/04 04:32:35;;;;;;;2.17;1.40;;;;;;;16.86;66.49;101309.56;5052604;28;20466;-71
2022/06/04 04:35:04;;;;;;;1.77;1.30;;;;;;;16.88;66.49;101310.84;5052999;28;20534;-71
2022/06/04 04:37:31;;;;;;;2.43;1.40;;;;;;;16.88;67.29;101301.84;5052890;28;20442;-70
2022/06/04 04:39:58;;;;;;;2.10;1.20;;;;;;;16.86;67.14;101307.63;5053418;28;20886;-71
2022/06/04 04:42:24;;;;;;;2.63;1.43;;;;;;;16.78;65.91;101315.88;5056622;28;20963;-71
2022/06/04 04:44:52;;;;;;;4.00;1.60;;;;;;;16.74;66.42;101315.72;5056581;28;21027;-71
2022/06/04 04:47:19;;;;;;;1.30;1.20;;;;;;;16.73;65.34;101311.34;5056587;28;20537;-71
2022/06/04 04:49:46;;;;;;;2.13;1.60;;;;;;;16.66;65.08;101319.22;5056539;28;20940;-71
2022/06/04 04:52:13;;;;;;;2.97;2.10;;;;;;;16.66;65.14;101316.50;5056501;28;20450;-71
2022/06/04 04:54:40;;;;;;;2.30;1.20;;;;;;;16.65;64.40;101317.63;5056472;28;20906;-71
2022/06/04 04:57:07;;;;;;;2.03;1.50;;;;;;;16.60;65.26;101320.50;5056761;28;20525;-71
2022/06/04 04:59:33;;;;;;;1.40;1.20;;;;;;;16.57;65.61;101326.66;5056675;28;20448;-71
2022/06/04 05:02:01;;;;;;;3.43;1.90;;;;;;;16.62;65.94;101331.94;5056604;28;20442;-70
2022/06/04 05:04:28;;;;;;;1.80;1.40;;;;;;;16.69;65.51;101325.97;5056166;28;20560;-71
2022/06/04 05:06:55;;;;;;;1.63;1.20;;;;;;;16.67;65.39;101323.56;5056563;28;20888;-71
2022/06/04 05:09:21;;;;;;;1.53;1.37;;;;;;;16.65;65.29;101332.09;5056112;28;21021;-71
2022/06/04 05:11:48;;;;;;;6.37;1.70;;;;;;;16.64;65.27;101329.69;5056411;28;20446;-71
2022/06/04 05:14:15;;;;;;;6.53;1.43;;;;;;;16.68;65.17;101330.63;5056319;28;20468;-71
2022/06/04 05:16:42;;;;;;;2.23;1.40;;;;;;;16.71;64.12;101324.53;5056448;28;20442;-71
2022/06/04 05:19:10;;;;;;;3.23;1.57;;;;;;;16.70;64.77;101317.47;5056214;28;20472;-71
2022/06/04 05:21:40;;;;;;;1.30;1.10;;;;;;;16.73;65.21;101314.09;5056299;28;20529;-71
2022/06/04 05:24:08;;;;;;;3.23;1.43;;;;;;;16.76;65.64;101312.63;5056157;28;20556;-71
2022/06/04 05:26:35;;;;;;;2.63;1.57;;;;;;;16.81;65.19;101324.22;5055882;28;20495;-71
2022/06/04 05:29:01;;;;;;;2.23;1.30;;;;;;;16.85;65.76;101318.91;5056232;28;20859;-71
2022/06/04 05:31:28;;;;;;;2.00;1.50;;;;;;;16.89;65.53;101308.91;5056045;28;20448;-71
2022/06/04 05:33:55;;;;;;;1.90;1.57;;;;;;;17.02;64.91;101318.06;5055691;28;20621;-71
2022/06/04 05:36:22;;;;;;;3.07;1.40;;;;;;;17.14;64.97;101315.44;5056000;28;20438;-71
2022/06/04 05:38:49;;;;;;;2.23;1.53;;;;;;;17.17;63.50;101317.50;5055681;28;20528;-72
2022/06/04 05:41:16;;;;;;;4.90;2.03;;;;;;;17.25;63.36;101311.22;5055885;28;20544;-71
2022/06/04 05:43:43;;;;;;;6.23;1.53;;;;;;;17.32;63.71;101305.22;5055787;28;20470;-70
2022/06/04 05:46:12;;;;;;;3.67;2.07;;;;;;;17.42;64.86;101309.53;5055817;28;20534;-72
2022/06/04 05:48:42;;;;;;;2.93;1.43;;;;;;;17.52;63.66;101311.88;5055713;28;20486;-72
2022/06/04 05:51:10;;;;;;;1.73;1.30;;;;;;;17.55;62.19;101317.53;5055341;28;20521;-71
2022/06/04 05:53:38;;;;;;;1.73;1.17;;;;;;;17.61;62.28;101315.38;5055206;28;20498;-72
2022/06/04 05:56:11;;;;;;;2.30;1.60;;;;;;;17.70;62.35;101321.63;5055320;28;20983;-71
2022/06/04 05:58:38;;;;;;;1.83;1.27;;;;;;;17.74;62.34;101328.06;5055648;28;20431;-71
2022/06/04 06:01:05;;;;;;;1.90;1.33;;;;;;;17.63;59.87;101337.78;5055198;28;20537;-71
2022/06/04 06:03:31;;;;;;;1.90;1.33;;;;;;;17.75;60.61;101340.66;5056474;28;20568;-71
2022/06/04 06:05:59;;;;;;;1.93;1.30;;;;;;;17.82;60.63;101340.94;5055453;28;20875;-72
2022/06/04 06:08:26;;;;;;;2.43;1.20;;;;;;;17.94;61.18;101344.91;5055303;28;20490;-72
2022/06/04 06:10:54;;;;;;;2.00;1.13;;;;;;;17.96;61.19;101348.91;5055421;28;20525;-72
2022/06/04 06:13:20;;;;;;;4.77;1.10;;;;;;;17.86;59.91;101347.38;5055054;28;20821;-72
2022/06/04 06:15:47;;;;;;;1.80;1.50;;;;;;;17.90;61.40;101342.81;5055338;28;20525;-72
2022/06/04 06:18:13;;;;;;;2.10;1.30;;;;;;;17.94;61.03;101350.41;5055240;28;20533;-72
2022/06/04 06:20:44;;;;;;;2.87;1.57;;;;;;;18.05;61.25;101343.38;5055040;28;20456;-72
2022/06/04 06:23:11;;;;;;;2.30;1.47;;;;;;;18.18;60.66;101347.00;5054864;28;20462;-71
2022/06/04 06:25:37;;;;;;;3.07;1.40;;;;;;;18.18;59.17;101347.00;5054764;28;20442;-71
2022/06/04 06:28:07;;;;;;;2.17;1.30;;;;;;;18.27;59.25;101345.78;5054858;28;20533;-71
2022/06/04 06:30:33;;;;;;;2.07;1.10;;;;;;;18.37;57.78;101345.41;5054988;28;20482;-71
2022/06/04 06:33:00;;;;;;;2.07;1.03;;;;;;;18.53;57.73;101339.28;5054870;28;20545;-71
2022/06/04 06:35:26;;;;;;;1.67;0.97;;;;;;;18.60;58.49;101343.09;5054895;28;20493;-71
2022/06/04 06:37:53;;;;;;;1.50;1.17;;;;;;;18.76;58.16;101357.03;5054797;28;20448;-71
2022/06/04 06:40:20;;;;;;;2.00;1.20;;;;;;;18.84;58.29;101353.41;5054822;28;20474;-71
2022/06/04 06:42:47;;;;;;;1.80;1.20;;;;;;;18.90;57.35;101353.97;5054507;28;20537;-71
2022/06/04 06:45:15;;;;;;;2.53;1.40;;;;;;;18.85;55.88;101360.47;5054710;28;20882;-71
2022/06/04 06:47:43;;;;;;;1.73;1.00;;;;;;;18.85;55.81;101365.19;5054691;28;20533;-72
2022/06/04 06:50:10;;;;;;;2.73;1.10;;;;;;;18.85;55.10;101368.72;5054598;28;20486;-71
2022/06/04 06:52:36;;;;;;;3.10;1.40;;;;;;;18.92;55.71;101370.94;5054215;28;20469;-72
2022/06/04 06:55:03;;;;;;;2.03;1.20;;;;;;;19.02;56.48;101375.19;5054488;28;20525;-71
2022/06/04 06:57:30;;;;;;;3.00;1.47;;;;;;;19.20;57.17;101375.81;5054459;28;20448;-71
2022/06/04 06:59:56;;;;;;;2.20;1.17;;;;;;;19.38;56.62;101378.00;5054426;28;20449;-71
2022/06/04 07:02:24;;;;;;;2.40;1.30;;;;;;;19.49;55.20;101383.09;5054086;28;20492;-72
2022/06/04 07:04:51;;;;;;;1.93;1.10;;;;;;;19.55;53.92;101387.19;5054354;28;20451;-72
2022/06/04 07:07:17;;;;;;;1.87;1.20;;;;;;;19.64;54.22;101379.69;5054273;28;20530;-75
2022/06/04 07:09:44;;;;;;;1.40;1.10;;;;;;;19.66;54.81;101388.41;5054191;28;20481;-73
2022/06/04 07:12:12;;;;;;;1.23;0.80;;;;;;;19.75;53.22;101386.34;5053862;28;20561;-71
2022/06/04 07:14:40;;;;;;;1.77;1.23;;;;;;;19.85;53.82;101390.56;5054043;28;20465;-71
2022/06/04 07:17:07;;;;;;;3.47;1.37;;;;;;;19.95;53.40;101394.78;5053767;28;20939;-70
2022/06/04 07:19:35;;;;;;;1.87;1.10;;;;;;;20.07;52.76;101392.03;5053867;28;20450;-70
2022/06/04 07:22:02;;;;;;;2.33;1.10;;;;;;;20.15;53.81;101399.38;5053620;28;20936;-70
2022/06/04 07:24:29;;;;;;;1.70;1.20;;;;;;;20.27;53.93;101390.28;5053848;28;20746;-70
2022/06/04 07:26:57;;;;;;;2.80;1.07;;;;;;;20.31;53.39;101391.97;5053892;28;20482;-70
2022/06/04 07:29:23;;;;;;;1.67;0.90;;;;;;;20.36;52.50;101393.69;5053793;28;20525;-70
2022/06/04 07:31:50;;;;;;;1.60;1.10;;;;;;;20.41;51.66;101398.97;5053827;28;20474;-70
2022/06/04 07:34:17;;;;;;;14.03;1.60;;;;;;;20.30;51.15;101395.91;5053699;28;20553;-70
2022/06/04 07:36:47;;;;;;;1.03;0.80;;;;;;;20.32;51.46;101410.13;5053460;28;20955;-70
2022/06/04 07:39:17;;;;;;;1.20;1.00;;;;;;;20.31;51.20;101410.44;5053664;28;20438;-69
2022/06/04 07:41:46;;;;;;;2.07;1.37;;;;;;;20.37;50.95;101409.88;5053668;28;20855;-70
2022/06/04 07:44:16;;;;;;;2.00;1.30;;;;;;;20.45;51.09;101418.31;5053520;28;20456;-70
2022/06/04 07:46:44;;;;;;;2.07;1.20;;;;;;;20.46;50.70;101418.00;5053312;28;20820;-70
2022/06/04 07:49:12;;;;;;;2.13;1.67;;;;;;;20.50;50.70;101418.16;5053450;28;20921;-70
2022/06/04 07:51:40;;;;;;;1.77;1.20;;;;;;;20.52;51.60;101418.59;5053505;28;20446;-70
2022/06/04 07:54:09;;;;;;;1.00;0.80;;;;;;;20.56;50.67;101422.25;5053048;28;20972;-70
2022/06/04 07:56:37;;;;;;;2.20;1.43;;;;;;;20.64;51.61;101413.06;5053425;28;20504;-70
2022/06/04 07:59:04;;;;;;;1.60;1.20;;;;;;;20.68;50.84;101426.94;5053086;28;20438;-70
2022/06/04 08:01:31;;;;;;;1.03;0.80;;;;;;;20.80;49.86;101430.41;5053373;28;20622;-70
2022/06/04 08:03:58;;;;;;;0.93;0.83;;;;;;;20.94;50.09;101429.22;5052915;28;20557;-70
2022/06/04 08:06:25;;;;;;;5.33;0.93;;;;;;;21.03;51.44;101429.88;5052905;28;21044;-70
2022/06/04 08:08:54;;;;;;;1.83;1.40;;;;;;;21.12;51.71;101441.56;5053177;28;20454;-70
2022/06/04 08:11:32;;;;;;;1.77;1.20;;;;;;;21.23;50.19;101436.31;5053171;28;20454;-70
2022/06/04 08:14:00;;;;;;;1.40;1.07;;;;;;;21.34;50.22;101437.44;5052893;28;20844;-70
2022/06/04 08:16:27;;;;;;;1.47;1.03;;;;;;;21.45;49.32;101438.53;5052768;28;20436;-70
2022/06/04 08:18:54;;;;;;;1.70;1.03;;;;;;;21.50;49.31;101445.72;5052814;28;20937;-70
2022/06/04 08:21:21;;;;;;;1.70;1.07;;;;;;;21.56;49.88;101445.13;5053144;28;20446;-70
2022/06/04 08:23:48;;;;;;;1.00;0.83;;;;;;;21.60;50.32;101443.25;5053050;28;20466;-70
2022/06/04 08:26:15;;;;;;;2.60;1.10;;;;;;;21.70;48.65;101441.94;5053029;28;20434;-70
2022/06/04 08:28:43;;;;;;;1.40;1.10;;;;;;;21.81;49.43;101440.22;5052991;28;20525;-70
2022/06/04 08:31:12;;;;;;;1.30;1.00;;;;;;;21.88;50.06;101443.16;5053000;28;20536;-70
2022/06/04 08:33:39;;;;;;;2.47;1.13;;;;;;;21.96;50.37;101441.38;5052920;28;20902;-70
2022/06/04 08:36:07;;;;;;;1.43;1.10;;;;;;;21.90;49.44;101440.84;5052971;28;20517;-70
2022/06/04 08:38:34;;;;;;;1.93;1.03;;;;;;;21.87;48.06;101449.03;5052948;28;20524;-70
2022/06/04 08:41:04;;;;;;;1.20;1.00;;;;;;;21.79;48.65;101444.50;5052737;28;20995;-70
2022/06/04 08:43:36;;;;;;;3.23;1.27;;;;;;;21.93;47.65;101447.59;5053027;28;20458;-70
2022/06/04 08:46:12;;;;;;;1.73;1.20;;;;;;;22.10;47.82;101447.22;5052650;28;20437;-70
2022/06/04 08:48:38;;;;;;;1.50;1.30;;;;;;;22.32;47.36;101445.81;5052919;28;20517;-70
2022/06/04 08:51:21;;;;;;;2.60;1.30;;;;;;;22.38;46.21;101449.06;5052755;28;20482;-70
2022/06/04 08:53:51;;;;;;;3.90;1.03;;;;;;;22.46;46.53;101445.31;5052868;28;20462;-69
2022/06/04 08:59:20;;;;;;;1.43;0.90;;;;;;;22.69;46.47;101439.88;5052649;28;20461;-72
2022/06/04 09:01:54;;;;;;;1.87;1.07;;;;;;;22.88;46.58;101442.63;5052389;28;20939;-72
2022/06/04 09:04:35;;;;;;;2.50;1.27;;;;;;;23.00;45.52;101441.72;5052327;28;20473;-72
2022/06/04 09:07:10;;;;;;;1.40;1.20;;;;;;;23.05;46.07;101460.78;5052732;28;20510;-72
2022/06/04 09:09:42;;;;;;;3.50;1.23;;;;;;;23.09;45.12;101452.56;5052655;28;20505;-72
2022/06/04 09:12:24;;;;;;;3.37;1.10;;;;;;;23.12;44.82;101457.38;5052706;28;20530;-72
2022/06/04 09:14:56;;;;;;;1.23;1.10;;;;;;;23.15;44.72;101451.09;5052749;28;20517;-72
2022/06/04 09:17:34;;;;;;;2.93;1.17;;;;;;;23.09;45.15;101460.84;5052629;28;20516;-72
2022/06/04 09:20:01;;;;;;;1.57;1.00;;;;;;;23.12;44.34;101454.59;5052325;28;20509;-73
2022/06/04 09:22:35;;;;;;;1.03;0.87;;;;;;;23.12;43.76;101458.16;5052443;28;20438;-72
2022/06/04 09:25:02;;;;;;;1.10;0.90;;;;;;;23.35;44.15;101460.16;5052552;28;20517;-72
2022/06/04 09:27:38;;;;;;;1.10;1.00;;;;;;;23.52;45.47;101456.91;5054037;28;20532;-72
2022/06/04 09:30:21;;;;;;;1.10;0.90;;;;;;;23.63;45.51;101459.88;5056081;28;20472;-72
2022/06/04 09:33:04;;;;;;;1.73;1.07;;;;;;;23.71;44.47;101469.91;5055800;28;20979;-72
2022/06/04 09:35:37;;;;;;;1.10;0.90;;;;;;;23.82;45.39;101470.91;5056152;28;20453;-72
2022/06/04 09:38:04;;;;;;;1.50;1.10;;;;;;;23.85;44.66;101472.13;5056096;28;20422;-72
2022/06/04 09:40:33;;;;;;;2.13;1.40;;;;;;;23.88;44.00;101463.09;5055620;28;20443;-72
2022/06/04 09:43:10;;;;;;;1.50;1.20;;;;;;;23.82;44.21;101472.88;5055582;28;20541;-72
2022/06/04 09:45:37;;;;;;;1.20;1.00;;;;;;;23.79;44.26;101477.19;5055951;28;20500;-72
2022/06/04 09:48:14;;;;;;;1.77;1.10;;;;;;;23.62;43.27;101480.41;5055841;28;20442;-73
2022/06/04 09:50:41;;;;;;;2.03;1.20;;;;;;;23.62;44.09;101483.97;5055776;28;20914;-72
2022/06/04 09:53:19;;;;;;;2.07;1.27;;;;;;;23.70;42.78;101482.16;5055676;28;20466;-72
2022/06/04 09:55:50;;;;;;;1.90;1.23;;;;;;;23.72;44.48;101482.56;5055742;28;20426;-72
2022/06/04 09:58:21;;;;;;;2.53;1.53;;;;;;;23.88;43.90;101488.00;5055417;28;20437;-72
2022/06/04 10:00:57;;;;;;;3.80;0.90;;;;;;;23.80;44.22;101495.38;5055355;28;20423;-72
2022/06/04 10:03:26;;;;;;;1.50;1.00;;;;;;;23.76;43.64;101486.22;5055175;28;20484;-72
2022/06/04 10:06:01;;;;;;;1.30;1.00;;;;;;;23.84;43.70;101490.69;5055488;28;20529;-72
2022/06/04 10:08:29;;;;;;;1.00;0.67;;;;;;;23.91;43.90;101490.03;5055507;28;20516;-72
2022/06/04 10:11:01;;;;;;;1.40;1.00;;;;;;;23.78;43.81;101494.94;5055243;28;20491;-72
2022/06/04 10:13:43;;;;;;;1.60;1.30;;;;;;;23.72;43.59;101487.31;5054950;28;20920;-72
2022/06/04 10:16:18;;;;;;;2.07;1.20;;;;;;;23.84;43.75;101493.47;5055327;28;20480;-72
2022/06/04 10:19:01;;;;;;;1.60;0.93;;;;;;;23.98;43.52;101489.34;5054897;28;20592;-72
2022/06/04 10:21:30;;;;;;;1.73;1.10;;;;;;;24.01;44.06;101483.88;5055256;28;20427;-72
2022/06/04 10:23:59;;;;;;;1.50;1.40;;;;;;;24.03;44.15;101489.03;5054710;28;20545;-72
2022/06/04 10:26:40;;;;;;;1.57;1.00;;;;;;;24.18;45.27;101485.31;5054844;28;20529;-72
2022/06/04 10:29:27;;;;;;;1.53;0.90;;;;;;;24.37;43.84;101488.00;5055215;28;20802;-72
2022/06/04 10:32:06;;;;;;;1.47;1.10;;;;;;;24.58;44.45;101478.41;5054935;28;20430;-72
2022/06/04 10:34:40;;;;;;;1.27;1.07;;;;;;;24.78;44.24;101476.28;5054772;28;20847;-72
2022/06/04 10:37:23;;;;;;;2.13;1.17;;;;;;;25.02;42.77;101478.59;5054947;28;20433;-72
2022/06/04 10:39:58;;;;;;;1.47;0.90;;;;;;;25.09;42.82;101472.34;5054535;28;21007;-72
2022/06/04 10:42:38;;;;;;;1.20;1.00;;;;;;;25.05;42.42;101479.78;5054808;28;20465;-72
2022/06/04 10:45:16;;;;;;;2.00;1.20;;;;;;;25.13;43.37;101467.63;5054558;28;20437;-72
2022/06/04 10:47:49;;;;;;;1.87;1.27;;;;;;;25.20;43.66;101464.94;5054745;28;20501;-72
2022/06/04 10:50:29;;;;;;;2.20;1.23;;;;;;;25.47;42.80;101450.97;5054334;28;20505;-72
2022/06/04 10:53:01;;;;;;;2.80;1.33;;;;;;;25.65;43.05;101454.69;5054211;28;20987;-72
2022/06/04 10:55:39;;;;;;;1.00;0.73;;;;;;;25.49;40.59;101457.69;5054514;28;20498;-72
2022/06/04 10:58:32;;;;;;;1.83;1.37;;;;;;;25.42;42.59;101452.91;5054126;28;20986;-72
2022/06/04 11:01:05;;;;;;;1.73;1.20;;;;;;;25.48;42.17;101456.13;5051236;28;20450;-72
2022/06/04 11:03:39;;;;;;;1.77;1.40;;;;;;;25.79;42.24;101463.16;5054074;28;20552;-72
2022/06/04 11:06:13;;;;;;;2.17;1.60;;;;;;;26.07;42.04;101461.78;5054000;28;21584;-72
2022/06/04 11:08:45;;;;;;;1.43;0.87;;;;;;;26.24;42.97;101458.31;5049473;28;20458;-74
2022/06/04 11:11:19;;;;;;;1.10;0.80;;;;;;;26.40;41.51;101449.72;5054193;28;20463;-69
2022/06/04 11:13:51;;;;;;;1.77;1.40;;;;;;;26.29;41.91;101457.16;5054014;28;20467;-72
2022/06/04 11:16:21;;;;;;;1.43;1.10;;;;;;;25.78;43.93;101447.69;5053753;28;20979;-71
2022/06/04 11:18:54;;;;;;;2.13;1.10;;;;;;;25.78;44.13;101458.78;5054044;28;20443;-71
2022/06/04 11:21:29;;;;;;;2.40;1.00;;;;;;;26.15;45.60;101455.88;5053465;28;20427;-71
2022/06/04 11:24:00;;;;;;;1.20;1.00;;;;;;;26.32;43.49;101461.97;5052902;28;21021;-71
2022/06/04 11:26:31;;;;;;;1.70;1.20;;;;;;;26.45;42.35;101457.69;5053188;28;20427;-73
2022/06/04 11:28:59;;;;;;;2.50;1.33;;;;;;;26.65;40.56;101456.22;5053479;28;20415;-72
2022/06/04 11:31:46;;;;;;;1.33;1.00;;;;;;;26.64;41.02;101451.81;5053062;28;20478;-74
2022/06/04 11:34:38;;;;;;;3.07;1.53;;;;;;;26.42;40.89;101450.09;5053031;28;20553;-73
2022/06/04 11:37:20;;;;;;;4.17;1.73;;;;;;;26.38;41.14;101450.06;5053086;28;20848;-72
2022/06/04 11:40:03;;;;;;;2.93;1.53;;;;;;;26.24;41.34;101452.78;5051008;28;20534;-71
2022/06/04 11:42:42;;;;;;;2.43;1.37;;;;;;;26.69;41.80;101463.75;5051994;28;20513;-71
2022/06/04 11:45:25;;;;;;;2.07;1.40;;;;;;;27.25;40.02;101468.75;5052623;28;20501;-71
2022/06/04 11:48:05;;;;;;;1.90;1.43;;;;;;;27.47;41.44;101469.59;5052530;28;20434;-71
2022/06/04 11:50:38;;;;;;;1.13;0.80;;;;;;;27.60;41.10;101462.47;5052087;28;20561;-71
2022/06/04 11:53:17;;;;;;;1.57;1.00;;;;;;;27.58;41.07;101467.63;5052707;28;20541;-71